Time;durP1;ratioP1;P1;durP2;ratioP2;P2;SDS_P1;SDS_P2;PMS_P1;PMS_P2;Temp;Humidity;BMP_temperature;BMP_pressure;BME280_temperature;BME280_humidity;BME280_pressure;Samples;Min_cycle;Max_cycle;Signal;HPM_P1;HPM_P2
2022/12/17 16:24:06;;;;;;;5.22;2.97;;;;;;;-145.06;100.00;60892.56;5786195;24;20019;-91
2022/12/17 16:48:48;;;;;;;7.30;3.70;;;;;;;-145.06;100.00;60892.56;5757358;23;20014;-90
2022/12/17 16:51:27;;;;;;;7.00;3.83;;;;;;;-145.06;100.00;60892.56;5937788;23;20012;-89
2022/12/17 16:54:13;;;;;;;6.68;3.85;;;;;;;-145.06;100.00;60892.56;5977338;23;20008;-90
2022/12/17 16:56:53;;;;;;;5.67;3.47;;;;;;;-145.06;100.00;60892.56;5976771;23;20004;-90
2022/12/17 16:59:32;;;;;;;7.70;4.03;;;;;;;-145.06;100.00;60892.56;5977069;23;20004;-90
2022/12/17 17:02:13;;;;;;;7.28;3.85;;;;;;;-145.06;100.00;60892.56;5982230;23;20076;-91
2022/12/17 17:04:52;;;;;;;7.22;3.60;;;;;;;-145.06;100.00;60892.56;5980553;23;20016;-89
2022/12/17 17:07:31;;;;;;;6.18;3.50;;;;;;;-145.06;100.00;60892.56;5982315;23;20036;-91
2022/12/17 17:10:10;;;;;;;7.47;4.38;;;;;;;-145.06;100.00;60892.56;6010391;23;20111;-89
2022/12/17 17:12:51;;;;;;;6.25;3.50;;;;;;;-145.06;100.00;60892.56;5979959;23;20004;-89
2022/12/17 17:15:31;;;;;;;9.93;5.07;;;;;;;-145.06;100.00;60892.56;5976974;23;20012;-89
2022/12/17 17:18:13;;;;;;;15.63;7.38;;;;;;;-145.06;100.00;60892.56;5978594;23;20001;-90
2022/12/17 17:20:54;;;;;;;11.73;6.05;;;;;;;-145.06;100.00;60892.56;6010233;23;20012;-92
2022/12/17 17:23:33;;;;;;;20.42;9.07;;;;;;;-145.06;100.00;60892.56;5978852;23;20016;-89
2022/12/17 17:26:13;;;;;;;23.40;9.88;;;;;;;-145.06;100.00;60892.56;5978228;23;20012;-90
2022/12/17 17:28:53;;;;;;;24.05;10.63;;;;;;;-145.06;100.00;60892.56;5979113;23;20009;-89
2022/12/17 17:31:33;;;;;;;23.92;10.85;;;;;;;-1.08;100.00;60892.56;5979242;23;20008;-89
2022/12/17 17:34:14;;;;;;;22.10;9.95;;;;;;;-1.09;100.00;60892.56;5978454;23;20012;-92
2022/12/17 17:36:53;;;;;;;19.17;9.83;;;;;;;-1.09;100.00;60892.56;6010305;23;20001;-90
2022/12/17 17:39:33;;;;;;;16.20;7.33;;;;;;;-145.06;100.00;60892.56;5978740;23;20008;-90
2022/12/17 17:42:17;;;;;;;14.73;7.03;;;;;;;-145.06;100.00;60892.56;5982514;23;20008;-90
2022/12/17 17:44:59;;;;;;;14.00;6.87;;;;;;;-145.06;100.00;60892.56;5982535;23;20012;-90
2022/12/17 17:47:38;;;;;;;11.40;6.13;;;;;;;-145.06;100.00;60892.56;5999045;23;20294;-90
2022/12/17 17:50:29;;;;;;;11.43;5.63;;;;;;;-145.06;100.00;60892.56;5985385;23;20004;-90
2022/12/17 17:53:17;;;;;;;8.37;5.00;;;;;;;-145.06;100.00;60892.56;5981195;23;20091;-90
2022/12/17 17:56:07;;;;;;;7.83;4.07;;;;;;;-145.06;100.00;60892.56;5980288;23;20005;-92
2022/12/17 17:58:57;;;;;;;7.70;4.25;;;;;;;-145.06;100.00;60892.56;5979879;23;20004;-90
2022/12/17 18:01:49;;;;;;;6.63;3.67;;;;;;;-145.06;100.00;60892.56;5980516;23;20012;-90
2022/12/17 18:04:29;;;;;;;6.80;3.97;;;;;;;-145.06;100.00;60892.56;5980071;23;20012;-91
2022/12/17 18:07:19;;;;;;;6.17;3.70;;;;;;;-145.06;100.00;60892.56;5980167;23;20000;-89
2022/12/17 18:10:00;;;;;;;5.68;3.22;;;;;;;-145.06;100.00;60892.56;5979818;23;20017;-91
2022/12/17 18:15:51;;;;;;;6.20;3.53;;;;;;;-145.06;100.00;60892.56;6013509;23;20012;-90
2022/12/17 18:18:30;;;;;;;9.27;4.60;;;;;;;-145.06;100.00;60892.56;5978392;23;20372;-91
2022/12/17 18:21:11;;;;;;;11.50;5.73;;;;;;;-145.06;100.00;60892.56;5979289;23;20491;-91
2022/12/17 18:24:01;;;;;;;16.97;8.10;;;;;;;-145.06;100.00;60892.56;5980395;23;20248;-92
2022/12/17 18:26:45;;;;;;;17.02;8.07;;;;;;;-145.06;100.00;60892.56;5978026;23;20012;-91
2022/12/17 18:29:27;;;;;;;16.10;7.63;;;;;;;-145.06;100.00;60892.56;5978981;23;20016;-90
2022/12/17 18:32:08;;;;;;;16.27;8.03;;;;;;;-145.06;100.00;60892.56;5977491;23;20009;-88
2022/12/17 18:34:48;;;;;;;16.07;7.83;;;;;;;-145.06;100.00;60892.56;5977378;23;20012;-89
2022/12/17 18:37:27;;;;;;;14.88;7.90;;;;;;;-145.06;100.00;60892.56;5976662;23;20009;-89
2022/12/17 18:40:07;;;;;;;18.15;8.38;;;;;;;-145.06;100.00;60892.56;5977699;23;20112;-89
2022/12/17 18:45:44;;;;;;;13.07;6.83;;;;;;;-145.06;100.00;60892.56;6011029;23;20004;-90
2022/12/17 18:48:24;;;;;;;11.48;5.97;;;;;;;-145.06;100.00;60892.56;5977756;23;20004;-89
2022/12/17 18:51:04;;;;;;;13.27;5.97;;;;;;;-145.06;100.00;60892.56;6002985;23;20012;-91
2022/12/17 18:53:43;;;;;;;10.57;5.93;;;;;;;-145.06;100.00;60892.56;5980930;23;20008;-89
2022/12/17 18:56:23;;;;;;;12.73;6.63;;;;;;;-145.06;100.00;60892.56;5980843;23;20008;-91
2022/12/17 18:59:03;;;;;;;10.65;6.03;;;;;;;-145.06;100.00;60892.56;5981254;23;20371;-89
2022/12/17 19:01:42;;;;;;;11.17;5.53;;;;;;;-145.06;100.00;60892.56;5980271;23;20008;-88
2022/12/17 19:04:22;;;;;;;10.98;5.47;;;;;;;-145.06;100.00;60892.56;6026994;23;20007;-89
2022/12/17 19:07:01;;;;;;;11.23;5.20;;;;;;;-145.06;100.00;60892.56;6009362;23;20004;-90
2022/12/17 19:09:41;;;;;;;9.63;5.38;;;;;;;-145.06;100.00;60892.56;6008824;23;20427;-90
2022/12/17 19:12:20;;;;;;;8.82;5.05;;;;;;;-145.06;100.00;60892.56;6009942;23;20016;-89
2022/12/17 19:14:59;;;;;;;9.00;4.78;;;;;;;-145.06;100.00;60892.56;6009446;23;20355;-89
2022/12/17 19:17:40;;;;;;;9.85;4.85;;;;;;;-145.06;100.00;60892.56;6009127;23;20004;-90
2022/12/17 19:20:19;;;;;;;9.17;4.53;;;;;;;-145.06;100.00;60892.56;5986680;23;20004;-89
2022/12/17 19:22:58;;;;;;;7.80;4.28;;;;;;;-145.06;100.00;60892.56;6008566;23;20007;-90
2022/12/17 19:25:37;;;;;;;10.37;5.33;;;;;;;-145.06;100.00;60892.56;6007720;23;20079;-89
2022/12/17 19:28:17;;;;;;;10.70;4.88;;;;;;;-145.06;100.00;60892.56;6008932;23;20247;-92
2022/12/17 19:30:56;;;;;;;7.50;4.60;;;;;;;-145.06;100.00;60892.56;6008292;23;20083;-90
2022/12/17 19:33:35;;;;;;;6.78;4.15;;;;;;;-145.06;100.00;60892.56;6008701;23;20031;-89
2022/12/17 19:36:17;;;;;;;6.82;4.15;;;;;;;-145.06;100.00;60892.56;6008317;22;20059;-89
2022/12/17 19:38:59;;;;;;;7.67;3.93;;;;;;;-145.06;100.00;60892.56;6007703;23;20304;-90
2022/12/17 19:41:38;;;;;;;7.80;3.87;;;;;;;-145.06;100.00;60892.56;6007510;23;20012;-91
2022/12/17 19:44:19;;;;;;;6.38;4.22;;;;;;;-145.06;100.00;60892.56;6008231;23;20004;-89
2022/12/17 19:46:58;;;;;;;7.37;4.57;;;;;;;-145.06;100.00;60892.56;6005829;23;20004;-89
2022/12/17 19:49:40;;;;;;;8.07;4.30;;;;;;;-145.06;100.00;60892.56;6006306;23;20016;-89
2022/12/17 19:52:42;;;;;;;6.93;3.87;;;;;;;-145.06;100.00;60892.56;6005775;23;20012;-88
2022/12/17 19:55:22;;;;;;;8.63;3.90;;;;;;;-145.06;100.00;60892.56;6004308;23;20004;-89
2022/12/17 19:58:01;;;;;;;6.40;3.95;;;;;;;-145.06;100.00;60892.56;6004286;23;20434;-89
2022/12/17 20:00:40;;;;;;;7.03;4.15;;;;;;;-145.06;100.00;60892.56;6004729;23;20007;-89
2022/12/17 20:03:19;;;;;;;7.03;3.90;;;;;;;-145.06;100.00;60892.56;6025661;23;20013;-88
2022/12/17 20:05:59;;;;;;;7.53;3.90;;;;;;;-145.06;100.00;60892.56;5975711;23;20008;-90
2022/12/17 20:08:37;;;;;;;6.13;3.30;;;;;;;-145.06;100.00;60892.56;5974837;23;20005;-88
2022/12/17 20:11:32;;;;;;;10.20;4.20;;;;;;;-145.06;100.00;60892.56;5975385;23;20251;-90
2022/12/17 20:14:25;;;;;;;7.23;3.83;;;;;;;-3.60;100.00;60892.56;5975255;23;20008;-90
2022/12/17 20:17:04;;;;;;;5.87;3.43;;;;;;;-145.06;100.00;60892.56;5976247;23;20004;-91
2022/12/17 20:19:43;;;;;;;7.50;3.78;;;;;;;-145.06;100.00;60892.56;5977789;23;20012;-90
2022/12/17 20:22:22;;;;;;;7.70;3.88;;;;;;;-145.06;100.00;60892.56;5976982;23;20566;-90
2022/12/17 20:25:03;;;;;;;7.13;3.92;;;;;;;-145.06;100.00;60892.56;5977909;23;20083;-88
2022/12/17 20:27:43;;;;;;;5.60;3.30;;;;;;;-145.06;100.00;60892.56;6010480;23;20004;-89
2022/12/17 20:30:23;;;;;;;7.35;4.00;;;;;;;-145.06;100.00;60892.56;5979631;23;20012;-90
2022/12/17 20:33:02;;;;;;;9.13;4.27;;;;;;;-145.06;100.00;60892.56;5992870;23;20008;-90
2022/12/17 20:35:41;;;;;;;8.70;4.10;;;;;;;-145.06;100.00;60892.56;5976411;23;20311;-89
2022/12/17 20:38:21;;;;;;;7.82;4.30;;;;;;;-145.06;100.00;60892.56;5977078;23;20009;-89
2022/12/17 20:41:00;;;;;;;6.47;3.77;;;;;;;-145.06;100.00;60892.56;5976172;23;20048;-89
2022/12/17 20:43:40;;;;;;;7.43;4.50;;;;;;;-145.06;100.00;60892.56;5975643;23;20008;-89
2022/12/17 20:46:21;;;;;;;6.28;3.90;;;;;;;-145.06;100.00;60892.56;5976516;23;20001;-89
2022/12/17 20:49:00;;;;;;;6.90;4.20;;;;;;;-145.06;100.00;60892.56;5976332;23;20090;-90
2022/12/17 20:51:39;;;;;;;7.45;3.85;;;;;;;-145.06;100.00;60892.56;5976167;23;20360;-89
2022/12/17 20:54:18;;;;;;;6.97;3.70;;;;;;;-145.06;100.00;60892.56;5976587;23;20429;-89
2022/12/17 20:56:57;;;;;;;7.07;3.80;;;;;;;-145.06;100.00;60892.56;5977408;23;20005;-90
2022/12/17 20:59:36;;;;;;;8.32;3.72;;;;;;;-145.06;100.00;60892.56;5977023;23;20087;-89
2022/12/17 21:02:16;;;;;;;7.20;3.80;;;;;;;-145.06;100.00;60892.56;5976427;23;20013;-90
2022/12/17 21:04:55;;;;;;;7.87;4.10;;;;;;;-145.06;100.00;60892.56;5976483;23;20455;-89
2022/12/17 21:07:34;;;;;;;7.60;4.03;;;;;;;-145.06;100.00;60892.56;5976424;23;20004;-91
2022/12/17 21:10:13;;;;;;;8.07;3.45;;;;;;;-145.06;100.00;60892.56;5976758;23;20008;-90
2022/12/17 21:15:50;;;;;;;5.83;3.57;;;;;;;-145.06;100.00;60892.56;6007716;23;20004;-91
2022/12/17 21:18:30;;;;;;;5.90;3.47;;;;;;;-145.06;100.00;60892.56;5975762;23;20008;-89
2022/12/17 21:21:11;;;;;;;7.17;3.97;;;;;;;-145.06;100.00;60892.56;5975884;23;20012;-89
2022/12/17 21:23:51;;;;;;;6.63;3.13;;;;;;;-145.06;100.00;60892.56;5996669;23;20009;-90
2022/12/17 21:26:34;;;;;;;6.43;3.72;;;;;;;-145.06;100.00;60892.56;5974618;23;20016;-89
2022/12/17 21:29:13;;;;;;;5.37;2.80;;;;;;;-145.06;100.00;60892.56;5976082;23;20008;-89
2022/12/17 21:31:52;;;;;;;5.22;2.92;;;;;;;-145.06;100.00;60892.56;5976456;23;20032;-89
2022/12/17 21:34:31;;;;;;;4.18;2.80;;;;;;;-145.06;100.00;60892.56;5976000;23;20004;-90
2022/12/17 21:37:10;;;;;;;4.63;2.83;;;;;;;-145.06;100.00;60892.56;5975656;23;20004;-90
2022/12/17 21:39:49;;;;;;;4.63;2.78;;;;;;;-145.06;100.00;60892.56;5974628;23;20004;-89
2022/12/17 21:45:26;;;;;;;5.70;2.67;;;;;;;-145.06;100.00;60892.56;6007188;23;20004;-88
2022/12/17 21:48:07;;;;;;;3.25;2.30;;;;;;;-145.06;100.00;60892.56;5996422;23;20004;-89
2022/12/17 21:50:46;;;;;;;6.17;2.47;;;;;;;-145.06;100.00;60892.56;5976084;23;20004;-90
2022/12/17 21:53:25;;;;;;;5.15;2.75;;;;;;;-145.06;100.00;60892.56;5974846;23;20028;-88
2022/12/17 21:56:06;;;;;;;3.92;2.53;;;;;;;-145.06;100.00;60892.56;5976310;23;20083;-89
2022/12/17 21:58:46;;;;;;;4.23;2.60;;;;;;;-145.06;100.00;60892.56;5976498;23;20005;-89
2022/12/17 22:01:30;;;;;;;5.00;2.78;;;;;;;-145.06;100.00;60892.56;5975732;23;20008;-90
2022/12/17 22:04:09;;;;;;;5.17;2.80;;;;;;;-145.06;100.00;60892.56;5989839;23;20012;-91
2022/12/17 22:06:48;;;;;;;5.30;3.05;;;;;;;-145.06;100.00;60892.56;5997043;23;20017;-91
2022/12/17 22:09:27;;;;;;;5.90;3.20;;;;;;;-145.06;100.00;60892.56;5997203;23;20671;-89
2022/12/17 22:15:05;;;;;;;5.20;3.00;;;;;;;-145.06;100.00;60892.56;6007259;23;20013;-89
2022/12/17 22:17:44;;;;;;;7.07;3.67;;;;;;;-145.06;100.00;60892.56;5996855;23;20032;-88
2022/12/17 22:20:23;;;;;;;6.88;3.80;;;;;;;-145.06;100.00;60892.56;5996903;23;20009;-90
2022/12/17 22:23:03;;;;;;;6.75;3.60;;;;;;;-145.06;100.00;60892.56;5997502;23;20012;-89
2022/12/17 22:25:42;;;;;;;5.93;3.30;;;;;;;-145.06;100.00;60892.56;5997620;23;20566;-90
2022/12/17 22:28:21;;;;;;;6.97;4.05;;;;;;;-145.06;100.00;60892.56;5997033;23;20000;-88
2022/12/17 22:34:09;;;;;;;5.43;3.10;;;;;;;-145.06;100.00;60892.56;6007406;23;20008;-91
2022/12/17 22:36:48;;;;;;;5.37;3.07;;;;;;;-145.06;100.00;60892.56;5997852;23;20316;-89
2022/12/17 22:39:27;;;;;;;7.00;3.45;;;;;;;-145.06;100.00;60892.56;5997037;23;20008;-90
2022/12/17 22:45:05;;;;;;;5.47;2.77;;;;;;;-145.06;100.00;60892.56;6008056;23;20424;-90
2022/12/17 22:47:45;;;;;;;4.80;3.10;;;;;;;-145.06;100.00;60892.56;5997972;23;20000;-91
2022/12/17 22:50:24;;;;;;;4.88;2.78;;;;;;;-145.06;100.00;60892.56;5997665;23;20688;-90
2022/12/17 22:53:04;;;;;;;5.90;3.40;;;;;;;-145.06;100.00;60892.56;5999168;23;20008;-89
2022/12/17 22:55:43;;;;;;;5.35;2.90;;;;;;;-145.06;100.00;60892.56;6001670;23;20113;-89
2022/12/17 22:58:22;;;;;;;5.22;3.00;;;;;;;-145.06;100.00;60892.56;6013214;23;20013;-88
2022/12/17 23:01:01;;;;;;;4.68;3.30;;;;;;;-145.06;100.00;60892.56;5997569;23;20032;-90
2022/12/17 23:03:40;;;;;;;6.77;3.60;;;;;;;-145.06;100.00;60892.56;5997652;23;20016;-90
2022/12/17 23:06:19;;;;;;;5.67;3.47;;;;;;;-145.06;100.00;60892.56;5996872;23;20322;-90
2022/12/17 23:08:59;;;;;;;7.63;3.47;;;;;;;-145.06;100.00;60892.56;5996064;23;20319;-89
2022/12/17 23:11:37;;;;;;;5.65;3.63;;;;;;;-145.06;100.00;60892.56;5997758;23;20012;-89
2022/12/17 23:14:16;;;;;;;5.90;3.42;;;;;;;-145.06;100.00;60892.56;5996473;23;20008;-90
2022/12/17 23:16:56;;;;;;;6.55;3.55;;;;;;;-145.06;100.00;60892.56;5997125;23;20455;-89
2022/12/17 23:19:35;;;;;;;7.07;3.30;;;;;;;-145.06;100.00;60892.56;6008889;23;20005;-89
2022/12/17 23:22:14;;;;;;;5.25;3.08;;;;;;;-145.06;100.00;60892.56;5997513;23;20332;-89
2022/12/17 23:24:53;;;;;;;5.88;3.53;;;;;;;-145.06;100.00;60892.56;5997391;23;20012;-90
2022/12/17 23:27:32;;;;;;;5.82;3.60;;;;;;;-145.06;100.00;60892.56;5997037;23;20008;-90
2022/12/17 23:30:13;;;;;;;5.78;3.25;;;;;;;-145.06;100.00;60892.56;5997734;23;20424;-89
2022/12/17 23:32:52;;;;;;;6.60;3.40;;;;;;;-145.06;100.00;60892.56;5996978;23;20443;-89
2022/12/17 23:35:31;;;;;;;6.30;3.60;;;;;;;-145.06;100.00;60892.56;5997544;23;20012;-89
2022/12/17 23:38:10;;;;;;;5.90;3.35;;;;;;;-145.06;100.00;60892.56;5998993;23;20083;-89
2022/12/17 23:40:49;;;;;;;6.47;3.60;;;;;;;-145.06;100.00;60892.56;5999106;23;20004;-89
2022/12/17 23:43:29;;;;;;;4.97;2.85;;;;;;;-145.06;100.00;60892.56;5998089;23;20004;-90
2022/12/17 23:46:08;;;;;;;5.15;3.17;;;;;;;-145.06;100.00;60892.56;5998630;23;20028;-90
2022/12/17 23:48:47;;;;;;;5.00;2.97;;;;;;;-145.06;100.00;60892.56;5998960;23;20005;-90
2022/12/17 23:51:27;;;;;;;6.20;3.40;;;;;;;-145.06;100.00;60892.56;5999040;23;20526;-89
2022/12/17 23:54:06;;;;;;;5.93;3.60;;;;;;;-145.06;100.00;60892.56;5999124;23;20012;-89
2022/12/17 23:56:45;;;;;;;5.50;3.00;;;;;;;-145.06;100.00;60892.56;5998468;23;20004;-90
2022/12/17 23:59:24;;;;;;;5.18;3.40;;;;;;;-145.06;100.00;60892.56;5998728;23;20005;-89
